sensor_id;sensor_type;location;lat;lon;timestamp;P1;durP1;ratioP1;P2;durP2;ratioP2
3189;SDS011;1606;51.946;10.558;2024-01-15T00:00:03;17.03;;;9.40;;
3189;SDS011;1606;51.946;10.558;2024-01-15T00:02:32;15.20;;;8.83;;
3189;SDS011;1606;51.946;10.558;2024-01-15T00:05:00;14.97;;;9.30;;
3189;SDS011;1606;51.946;10.558;2024-01-15T00:07:27;14.03;;;8.57;;
3189;SDS011;1606;51.946;10.558;2024-01-15T00:09:55;15.97;;;8.57;;
3189;SDS011;1606;51.946;10.558;2024-01-15T00:12:24;14.13;;;8.23;;
3189;SDS011;1606;51.946;10.558;2024-01-15T00:14:53;13.43;;;8.43;;
3189;SDS011;1606;51.946;10.558;2024-01-15T00:17:21;15.17;;;9.93;;
3189;SDS011;1606;51.946;10.558;2024-01-15T00:19:48;14.43;;;9.27;;
3189;SDS011;1606;51.946;10.558;2024-01-15T00:22:17;16.10;;;11.03;;
3189;SDS011;1606;51.946;10.558;2024-01-15T00:24:45;14.07;;;8.57;;
3189;SDS011;1606;51.946;10.558;2024-01-15T00:27:14;16.97;;;9.40;;
3189;SDS011;1606;51.946;10.558;2024-01-15T00:29:43;14.00;;;8.10;;
3189;SDS011;1606;51.946;10.558;2024-01-15T00:32:11;14.03;;;8.10;;
3189;SDS011;1606;51.946;10.558;2024-01-15T00:34:39;13.20;;;8.57;;
3189;SDS011;1606;51.946;10.558;2024-01-15T00:37:07;13.27;;;8.67;;
3189;SDS011;1606;51.946;10.558;2024-01-15T00:39:35;13.73;;;8.10;;
3189;SDS011;1606;51.946;10.558;2024-01-15T00:42:03;13.30;;;7.80;;
3189;SDS011;1606;51.946;10.558;2024-01-15T00:44:31;14.90;;;8.70;;
3189;SDS011;1606;51.946;10.558;2024-01-15T00:47:00;14.37;;;8.47;;
3189;SDS011;1606;51.946;10.558;2024-01-15T00:49:28;17.67;;;9.73;;
3189;SDS011;1606;51.946;10.558;2024-01-15T00:51:56;17.60;;;8.20;;
3189;SDS011;1606;51.946;10.558;2024-01-15T00:54:24;14.30;;;8.53;;
3189;SDS011;1606;51.946;10.558;2024-01-15T00:56:52;15.17;;;7.63;;
3189;SDS011;1606;51.946;10.558;2024-01-15T00:59:21;14.17;;;8.90;;
3189;SDS011;1606;51.946;10.558;2024-01-15T01:01:49;15.90;;;8.63;;
3189;SDS011;1606;51.946;10.558;2024-01-15T01:04:18;14.27;;;8.50;;
3189;SDS011;1606;51.946;10.558;2024-01-15T01:06:46;12.30;;;7.73;;
3189;SDS011;1606;51.946;10.558;2024-01-15T01:09:14;12.47;;;7.70;;
3189;SDS011;1606;51.946;10.558;2024-01-15T01:11:42;15.33;;;8.40;;
3189;SDS011;1606;51.946;10.558;2024-01-15T01:14:10;13.10;;;8.17;;
3189;SDS011;1606;51.946;10.558;2024-01-15T01:16:38;12.07;;;7.80;;
3189;SDS011;1606;51.946;10.558;2024-01-15T01:19:06;13.20;;;8.33;;
3189;SDS011;1606;51.946;10.558;2024-01-15T01:21:36;13.33;;;7.60;;
3189;SDS011;1606;51.946;10.558;2024-01-15T01:24:04;12.77;;;7.60;;
3189;SDS011;1606;51.946;10.558;2024-01-15T01:26:31;12.00;;;7.47;;
3189;SDS011;1606;51.946;10.558;2024-01-15T01:28:59;13.80;;;8.30;;
3189;SDS011;1606;51.946;10.558;2024-01-15T01:31:27;12.57;;;8.57;;
3189;SDS011;1606;51.946;10.558;2024-01-15T01:33:55;12.87;;;7.77;;
3189;SDS011;1606;51.946;10.558;2024-01-15T01:36:23;14.27;;;7.00;;
3189;SDS011;1606;51.946;10.558;2024-01-15T01:38:52;13.63;;;8.73;;
3189;SDS011;1606;51.946;10.558;2024-01-15T01:41:20;13.40;;;7.60;;
3189;SDS011;1606;51.946;10.558;2024-01-15T01:43:50;13.00;;;7.57;;
3189;SDS011;1606;51.946;10.558;2024-01-15T01:46:18;14.40;;;8.20;;
3189;SDS011;1606;51.946;10.558;2024-01-15T01:48:46;14.90;;;8.10;;
3189;SDS011;1606;51.946;10.558;2024-01-15T01:51:14;14.73;;;9.17;;
3189;SDS011;1606;51.946;10.558;2024-01-15T01:53:43;12.77;;;7.00;;
3189;SDS011;1606;51.946;10.558;2024-01-15T01:56:13;12.50;;;7.20;;
3189;SDS011;1606;51.946;10.558;2024-01-15T01:58:42;13.30;;;7.07;;
3189;SDS011;1606;51.946;10.558;2024-01-15T02:01:10;13.17;;;6.60;;
3189;SDS011;1606;51.946;10.558;2024-01-15T02:03:40;11.90;;;5.70;;
3189;SDS011;1606;51.946;10.558;2024-01-15T02:21:13;10.00;;;4.00;;
3189;SDS011;1606;51.946;10.558;2024-01-15T02:23:43;13.77;;;5.30;;
3189;SDS011;1606;51.946;10.558;2024-01-15T02:26:11;11.17;;;5.43;;
3189;SDS011;1606;51.946;10.558;2024-01-15T02:28:39;12.97;;;4.13;;
3189;SDS011;1606;51.946;10.558;2024-01-15T02:31:10;9.40;;;4.43;;
3189;SDS011;1606;51.946;10.558;2024-01-15T02:33:38;14.40;;;4.80;;
3189;SDS011;1606;51.946;10.558;2024-01-15T02:36:08;14.60;;;4.27;;
3189;SDS011;1606;51.946;10.558;2024-01-15T02:38:36;8.20;;;3.40;;
3189;SDS011;1606;51.946;10.558;2024-01-15T02:41:05;10.60;;;4.27;;
3189;SDS011;1606;51.946;10.558;2024-01-15T02:43:33;10.37;;;3.73;;
3189;SDS011;1606;51.946;10.558;2024-01-15T02:46:01;8.63;;;3.73;;
3189;SDS011;1606;51.946;10.558;2024-01-15T02:48:28;9.57;;;4.33;;
3189;SDS011;1606;51.946;10.558;2024-01-15T02:50:56;13.13;;;4.30;;
3189;SDS011;1606;51.946;10.558;2024-01-15T02:53:24;10.20;;;3.97;;
3189;SDS011;1606;51.946;10.558;2024-01-15T02:55:52;12.93;;;5.43;;
3189;SDS011;1606;51.946;10.558;2024-01-15T02:58:21;20.53;;;5.03;;
3189;SDS011;1606;51.946;10.558;2024-01-15T03:00:49;12.23;;;4.43;;
3189;SDS011;1606;51.946;10.558;2024-01-15T03:03:17;11.10;;;4.33;;
3189;SDS011;1606;51.946;10.558;2024-01-15T03:05:45;10.37;;;4.37;;
3189;SDS011;1606;51.946;10.558;2024-01-15T03:08:13;13.27;;;4.73;;
3189;SDS011;1606;51.946;10.558;2024-01-15T03:10:41;23.60;;;6.20;;
3189;SDS011;1606;51.946;10.558;2024-01-15T03:13:08;9.80;;;3.60;;
3189;SDS011;1606;51.946;10.558;2024-01-15T03:15:38;12.40;;;5.23;;
3189;SDS011;1606;51.946;10.558;2024-01-15T03:18:06;11.47;;;3.97;;
3189;SDS011;1606;51.946;10.558;2024-01-15T03:20:34;12.40;;;5.03;;
3189;SDS011;1606;51.946;10.558;2024-01-15T03:23:02;11.70;;;4.57;;
3189;SDS011;1606;51.946;10.558;2024-01-15T03:25:30;9.63;;;4.10;;
3189;SDS011;1606;51.946;10.558;2024-01-15T03:27:58;11.77;;;4.67;;
3189;SDS011;1606;51.946;10.558;2024-01-15T03:30:26;9.73;;;3.70;;
3189;SDS011;1606;51.946;10.558;2024-01-15T03:32:56;9.57;;;4.20;;
3189;SDS011;1606;51.946;10.558;2024-01-15T03:35:24;11.20;;;5.30;;
3189;SDS011;1606;51.946;10.558;2024-01-15T03:37:55;13.80;;;5.40;;
3189;SDS011;1606;51.946;10.558;2024-01-15T03:40:23;14.33;;;4.60;;
3189;SDS011;1606;51.946;10.558;2024-01-15T03:42:51;10.23;;;3.67;;
3189;SDS011;1606;51.946;10.558;2024-01-15T03:45:19;17.50;;;4.43;;
3189;SDS011;1606;51.946;10.558;2024-01-15T03:58:12;11.73;;;4.27;;
3189;SDS011;1606;51.946;10.558;2024-01-15T04:00:41;18.07;;;4.20;;
3189;SDS011;1606;51.946;10.558;2024-01-15T04:03:11;12.93;;;3.87;;
3189;SDS011;1606;51.946;10.558;2024-01-15T04:05:39;12.80;;;4.70;;
3189;SDS011;1606;51.946;10.558;2024-01-15T04:08:07;11.43;;;4.40;;
3189;SDS011;1606;51.946;10.558;2024-01-15T04:10:34;14.70;;;3.60;;
3189;SDS011;1606;51.946;10.558;2024-01-15T04:13:02;15.03;;;5.07;;
3189;SDS011;1606;51.946;10.558;2024-01-15T04:15:30;11.70;;;3.30;;
3189;SDS011;1606;51.946;10.558;2024-01-15T04:17:58;9.10;;;3.37;;
3189;SDS011;1606;51.946;10.558;2024-01-15T04:20:28;13.00;;;3.40;;
3189;SDS011;1606;51.946;10.558;2024-01-15T04:22:56;10.73;;;4.10;;
3189;SDS011;1606;51.946;10.558;2024-01-15T04:25:24;8.67;;;3.77;;
3189;SDS011;1606;51.946;10.558;2024-01-15T04:27:52;8.97;;;3.10;;
3189;SDS011;1606;51.946;10.558;2024-01-15T04:30:20;9.47;;;4.10;;
3189;SDS011;1606;51.946;10.558;2024-01-15T04:32:48;15.20;;;3.70;;
3189;SDS011;1606;51.946;10.558;2024-01-15T04:35:16;9.60;;;3.90;;
3189;SDS011;1606;51.946;10.558;2024-01-15T04:37:45;14.73;;;3.70;;
3189;SDS011;1606;51.946;10.558;2024-01-15T04:40:13;11.53;;;3.77;;
3189;SDS011;1606;51.946;10.558;2024-01-15T04:42:41;12.17;;;4.37;;
3189;SDS011;1606;51.946;10.558;2024-01-15T04:45:09;12.33;;;4.27;;
3189;SDS011;1606;51.946;10.558;2024-01-15T04:47:37;13.10;;;4.47;;
3189;SDS011;1606;51.946;10.558;2024-01-15T04:50:05;15.40;;;6.70;;
3189;SDS011;1606;51.946;10.558;2024-01-15T04:52:33;11.23;;;4.70;;
3189;SDS011;1606;51.946;10.558;2024-01-15T04:55:02;9.50;;;5.00;;
3189;SDS011;1606;51.946;10.558;2024-01-15T04:57:31;9.70;;;4.47;;
3189;SDS011;1606;51.946;10.558;2024-01-15T04:59:58;11.03;;;4.23;;
3189;SDS011;1606;51.946;10.558;2024-01-15T05:02:26;9.87;;;3.97;;
3189;SDS011;1606;51.946;10.558;2024-01-15T05:04:54;10.57;;;3.70;;
3189;SDS011;1606;51.946;10.558;2024-01-15T05:07:22;15.80;;;4.37;;
3189;SDS011;1606;51.946;10.558;2024-01-15T05:09:50;20.33;;;5.80;;
3189;SDS011;1606;51.946;10.558;2024-01-15T05:12:19;17.53;;;4.70;;
3189;SDS011;1606;51.946;10.558;2024-01-15T05:14:47;16.50;;;5.77;;
3189;SDS011;1606;51.946;10.558;2024-01-15T05:17:15;15.73;;;5.80;;
3189;SDS011;1606;51.946;10.558;2024-01-15T05:19:42;15.80;;;5.10;;
3189;SDS011;1606;51.946;10.558;2024-01-15T05:22:10;9.87;;;4.60;;
3189;SDS011;1606;51.946;10.558;2024-01-15T05:24:38;10.53;;;3.67;;
3189;SDS011;1606;51.946;10.558;2024-01-15T05:27:06;11.13;;;4.00;;
3189;SDS011;1606;51.946;10.558;2024-01-15T05:29:35;20.23;;;5.33;;
3189;SDS011;1606;51.946;10.558;2024-01-15T05:32:03;14.03;;;4.90;;
3189;SDS011;1606;51.946;10.558;2024-01-15T05:34:31;12.70;;;5.70;;
3189;SDS011;1606;51.946;10.558;2024-01-15T05:36:59;12.73;;;4.70;;
3189;SDS011;1606;51.946;10.558;2024-01-15T05:39:27;12.17;;;4.77;;
3189;SDS011;1606;51.946;10.558;2024-01-15T05:41:55;9.90;;;3.70;;
3189;SDS011;1606;51.946;10.558;2024-01-15T05:44:23;14.53;;;6.40;;
3189;SDS011;1606;51.946;10.558;2024-01-15T05:46:52;19.83;;;5.00;;
3189;SDS011;1606;51.946;10.558;2024-01-15T05:49:20;11.60;;;4.83;;
3189;SDS011;1606;51.946;10.558;2024-01-15T05:51:48;12.80;;;5.00;;
3189;SDS011;1606;51.946;10.558;2024-01-15T05:54:18;11.27;;;5.17;;
3189;SDS011;1606;51.946;10.558;2024-01-15T05:56:46;11.10;;;5.57;;
3189;SDS011;1606;51.946;10.558;2024-01-15T05:59:14;11.10;;;5.27;;
3189;SDS011;1606;51.946;10.558;2024-01-15T06:01:41;12.30;;;5.47;;
3189;SDS011;1606;51.946;10.558;2024-01-15T06:04:11;14.00;;;5.47;;
3189;SDS011;1606;51.946;10.558;2024-01-15T06:06:39;12.83;;;5.40;;
3189;SDS011;1606;51.946;10.558;2024-01-15T06:09:07;13.17;;;5.20;;
3189;SDS011;1606;51.946;10.558;2024-01-15T06:11:35;13.23;;;5.30;;
3189;SDS011;1606;51.946;10.558;2024-01-15T06:14:03;14.50;;;5.40;;
3189;SDS011;1606;51.946;10.558;2024-01-15T06:16:30;14.40;;;5.17;;
3189;SDS011;1606;51.946;10.558;2024-01-15T06:18:58;11.93;;;5.03;;
3189;SDS011;1606;51.946;10.558;2024-01-15T06:21:28;21.33;;;5.57;;
3189;SDS011;1606;51.946;10.558;2024-01-15T06:23:56;14.50;;;6.20;;
3189;SDS011;1606;51.946;10.558;2024-01-15T06:26:23;14.27;;;5.80;;
3189;SDS011;1606;51.946;10.558;2024-01-15T06:28:51;12.17;;;6.87;;
3189;SDS011;1606;51.946;10.558;2024-01-15T06:31:19;14.40;;;5.40;;
3189;SDS011;1606;51.946;10.558;2024-01-15T06:33:47;16.73;;;5.60;;
3189;SDS011;1606;51.946;10.558;2024-01-15T06:36:15;12.83;;;5.43;;
3189;SDS011;1606;51.946;10.558;2024-01-15T06:38:45;19.93;;;6.47;;
3189;SDS011;1606;51.946;10.558;2024-01-15T06:41:13;22.80;;;5.90;;
3189;SDS011;1606;51.946;10.558;2024-01-15T06:43:41;13.87;;;5.50;;
3189;SDS011;1606;51.946;10.558;2024-01-15T06:46:08;12.03;;;5.13;;
3189;SDS011;1606;51.946;10.558;2024-01-15T06:48:36;9.93;;;4.57;;
3189;SDS011;1606;51.946;10.558;2024-01-15T06:51:04;15.10;;;5.10;;
3189;SDS011;1606;51.946;10.558;2024-01-15T06:53:32;13.47;;;5.10;;
3189;SDS011;1606;51.946;10.558;2024-01-15T06:56:02;13.90;;;5.70;;
3189;SDS011;1606;51.946;10.558;2024-01-15T06:58:30;13.90;;;4.93;;
3189;SDS011;1606;51.946;10.558;2024-01-15T07:00:58;14.73;;;5.80;;
3189;SDS011;1606;51.946;10.558;2024-01-15T07:03:26;12.23;;;4.53;;
3189;SDS011;1606;51.946;10.558;2024-01-15T07:05:54;10.93;;;4.63;;
3189;SDS011;1606;51.946;10.558;2024-01-15T07:08:22;13.30;;;5.30;;
3189;SDS011;1606;51.946;10.558;2024-01-15T07:10:50;14.10;;;5.10;;
3189;SDS011;1606;51.946;10.558;2024-01-15T07:13:19;13.30;;;5.70;;
3189;SDS011;1606;51.946;10.558;2024-01-15T07:15:47;9.63;;;4.60;;
3189;SDS011;1606;51.946;10.558;2024-01-15T07:18:15;11.83;;;4.73;;
3189;SDS011;1606;51.946;10.558;2024-01-15T07:20:43;9.60;;;4.70;;
3189;SDS011;1606;51.946;10.558;2024-01-15T07:23:11;11.53;;;4.97;;
3189;SDS011;1606;51.946;10.558;2024-01-15T07:25:39;9.57;;;4.00;;
3189;SDS011;1606;51.946;10.558;2024-01-15T07:28:07;10.77;;;4.30;;
3189;SDS011;1606;51.946;10.558;2024-01-15T07:30:36;11.13;;;4.23;;
3189;SDS011;1606;51.946;10.558;2024-01-15T07:33:05;9.50;;;4.37;;
3189;SDS011;1606;51.946;10.558;2024-01-15T07:35:33;13.40;;;4.53;;
3189;SDS011;1606;51.946;10.558;2024-01-15T07:38:01;9.83;;;4.57;;
3189;SDS011;1606;51.946;10.558;2024-01-15T07:40:29;13.20;;;4.90;;
3189;SDS011;1606;51.946;10.558;2024-01-15T07:42:57;14.47;;;4.43;;
3189;SDS011;1606;51.946;10.558;2024-01-15T07:45:25;11.43;;;4.50;;
3189;SDS011;1606;51.946;10.558;2024-01-15T07:47:54;11.27;;;4.23;;
3189;SDS011;1606;51.946;10.558;2024-01-15T07:50:22;11.93;;;4.40;;
3189;SDS011;1606;51.946;10.558;2024-01-15T07:52:49;12.77;;;5.33;;
3189;SDS011;1606;51.946;10.558;2024-01-15T07:55:19;12.87;;;4.87;;
3189;SDS011;1606;51.946;10.558;2024-01-15T07:57:46;10.20;;;4.73;;
3189;SDS011;1606;51.946;10.558;2024-01-15T08:00:27;11.47;;;5.00;;
3189;SDS011;1606;51.946;10.558;2024-01-15T08:02:57;13.63;;;5.13;;
3189;SDS011;1606;51.946;10.558;2024-01-15T08:05:24;13.83;;;5.73;;
3189;SDS011;1606;51.946;10.558;2024-01-15T08:07:52;14.23;;;4.27;;
3189;SDS011;1606;51.946;10.558;2024-01-15T08:10:24;10.10;;;3.63;;
3189;SDS011;1606;51.946;10.558;2024-01-15T08:12:52;9.67;;;4.13;;
3189;SDS011;1606;51.946;10.558;2024-01-15T08:15:20;10.50;;;4.50;;
3189;SDS011;1606;51.946;10.558;2024-01-15T08:17:48;10.00;;;4.20;;
3189;SDS011;1606;51.946;10.558;2024-01-15T08:20:18;8.90;;;4.40;;
3189;SDS011;1606;51.946;10.558;2024-01-15T08:22:46;8.07;;;3.93;;
3189;SDS011;1606;51.946;10.558;2024-01-15T08:25:14;13.90;;;4.50;;
3189;SDS011;1606;51.946;10.558;2024-01-15T08:27:42;10.20;;;5.40;;
3189;SDS011;1606;51.946;10.558;2024-01-15T08:30:10;11.60;;;3.97;;
3189;SDS011;1606;51.946;10.558;2024-01-15T08:32:39;11.60;;;4.00;;
3189;SDS011;1606;51.946;10.558;2024-01-15T08:35:08;10.90;;;4.60;;
3189;SDS011;1606;51.946;10.558;2024-01-15T08:37:38;10.63;;;4.67;;
3189;SDS011;1606;51.946;10.558;2024-01-15T08:40:06;12.10;;;4.40;;
3189;SDS011;1606;51.946;10.558;2024-01-15T08:42:34;12.63;;;4.23;;
3189;SDS011;1606;51.946;10.558;2024-01-15T08:45:03;11.73;;;4.33;;
3189;SDS011;1606;51.946;10.558;2024-01-15T08:47:31;11.77;;;4.13;;
3189;SDS011;1606;51.946;10.558;2024-01-15T08:49:59;12.70;;;5.27;;
3189;SDS011;1606;51.946;10.558;2024-01-15T08:52:27;8.87;;;3.80;;
3189;SDS011;1606;51.946;10.558;2024-01-15T08:54:56;11.30;;;3.83;;
3189;SDS011;1606;51.946;10.558;2024-01-15T08:57:24;8.30;;;4.20;;
3189;SDS011;1606;51.946;10.558;2024-01-15T08:59:52;8.97;;;3.70;;
3189;SDS011;1606;51.946;10.558;2024-01-15T09:02:21;9.17;;;3.77;;
3189;SDS011;1606;51.946;10.558;2024-01-15T09:04:49;11.03;;;3.53;;
3189;SDS011;1606;51.946;10.558;2024-01-15T09:07:18;9.67;;;4.00;;
3189;SDS011;1606;51.946;10.558;2024-01-15T09:09:45;10.37;;;4.23;;
3189;SDS011;1606;51.946;10.558;2024-01-15T09:12:15;13.50;;;5.53;;
3189;SDS011;1606;51.946;10.558;2024-01-15T09:14:44;9.13;;;4.37;;
3189;SDS011;1606;51.946;10.558;2024-01-15T09:17:12;9.60;;;4.27;;
3189;SDS011;1606;51.946;10.558;2024-01-15T09:19:40;10.83;;;4.70;;
3189;SDS011;1606;51.946;10.558;2024-01-15T09:22:08;9.13;;;4.63;;
3189;SDS011;1606;51.946;10.558;2024-01-15T09:24:36;10.40;;;4.40;;
3189;SDS011;1606;51.946;10.558;2024-01-15T09:27:04;13.63;;;4.23;;
3189;SDS011;1606;51.946;10.558;2024-01-15T09:29:33;14.13;;;4.20;;
3189;SDS011;1606;51.946;10.558;2024-01-15T09:32:03;9.30;;;4.27;;
3189;SDS011;1606;51.946;10.558;2024-01-15T09:34:31;7.67;;;3.40;;
3189;SDS011;1606;51.946;10.558;2024-01-15T09:36:59;8.00;;;3.53;;
3189;SDS011;1606;51.946;10.558;2024-01-15T09:39:27;9.70;;;3.30;;
3189;SDS011;1606;51.946;10.558;2024-01-15T09:41:55;8.27;;;3.77;;
3189;SDS011;1606;51.946;10.558;2024-01-15T09:44:23;12.27;;;3.37;;
3189;SDS011;1606;51.946;10.558;2024-01-15T09:46:54;9.87;;;3.70;;
3189;SDS011;1606;51.946;10.558;2024-01-15T09:49:23;10.57;;;3.73;;
3189;SDS011;1606;51.946;10.558;2024-01-15T09:51:51;9.77;;;3.40;;
3189;SDS011;1606;51.946;10.558;2024-01-15T09:54:31;7.40;;;3.40;;
3189;SDS011;1606;51.946;10.558;2024-01-15T09:57:00;8.37;;;3.40;;
3189;SDS011;1606;51.946;10.558;2024-01-15T09:59:28;10.40;;;3.40;;
3189;SDS011;1606;51.946;10.558;2024-01-15T10:01:59;8.50;;;3.67;;
3189;SDS011;1606;51.946;10.558;2024-01-15T10:04:29;12.50;;;3.40;;
3189;SDS011;1606;51.946;10.558;2024-01-15T10:06:57;7.80;;;4.20;;
3189;SDS011;1606;51.946;10.558;2024-01-15T10:09:28;12.10;;;3.90;;
3189;SDS011;1606;51.946;10.558;2024-01-15T10:11:56;8.87;;;3.50;;
3189;SDS011;1606;51.946;10.558;2024-01-15T10:14:24;10.20;;;3.60;;
3189;SDS011;1606;51.946;10.558;2024-01-15T10:16:52;8.60;;;3.63;;
3189;SDS011;1606;51.946;10.558;2024-01-15T10:19:24;11.80;;;3.73;;
3189;SDS011;1606;51.946;10.558;2024-01-15T10:21:51;8.20;;;3.37;;
3189;SDS011;1606;51.946;10.558;2024-01-15T10:24:19;9.73;;;3.20;;
3189;SDS011;1606;51.946;10.558;2024-01-15T10:26:47;8.37;;;3.10;;
3189;SDS011;1606;51.946;10.558;2024-01-15T10:29:15;10.07;;;3.53;;
3189;SDS011;1606;51.946;10.558;2024-01-15T10:31:43;6.87;;;3.03;;
3189;SDS011;1606;51.946;10.558;2024-01-15T10:34:12;7.37;;;2.77;;
3189;SDS011;1606;51.946;10.558;2024-01-15T10:36:45;8.23;;;2.97;;
3189;SDS011;1606;51.946;10.558;2024-01-15T10:39:14;8.37;;;2.93;;
3189;SDS011;1606;51.946;10.558;2024-01-15T10:41:42;9.17;;;3.27;;
3189;SDS011;1606;51.946;10.558;2024-01-15T10:44:10;9.77;;;3.70;;
3189;SDS011;1606;51.946;10.558;2024-01-15T10:46:38;7.60;;;2.83;;
3189;SDS011;1606;51.946;10.558;2024-01-15T10:49:06;10.03;;;3.20;;
3189;SDS011;1606;51.946;10.558;2024-01-15T10:51:35;7.57;;;2.70;;
3189;SDS011;1606;51.946;10.558;2024-01-15T10:54:04;11.53;;;2.73;;
3189;SDS011;1606;51.946;10.558;2024-01-15T10:56:31;8.73;;;3.00;;
3189;SDS011;1606;51.946;10.558;2024-01-15T10:59:00;9.40;;;3.00;;
3189;SDS011;1606;51.946;10.558;2024-01-15T11:01:28;11.67;;;2.60;;
3189;SDS011;1606;51.946;10.558;2024-01-15T11:03:57;9.03;;;2.20;;
3189;SDS011;1606;51.946;10.558;2024-01-15T11:06:26;10.77;;;2.63;;
3189;SDS011;1606;51.946;10.558;2024-01-15T11:08:55;9.60;;;2.33;;
3189;SDS011;1606;51.946;10.558;2024-01-15T11:11:26;9.20;;;2.63;;
3189;SDS011;1606;51.946;10.558;2024-01-15T11:13:54;9.50;;;2.70;;
3189;SDS011;1606;51.946;10.558;2024-01-15T11:16:22;6.93;;;2.57;;
3189;SDS011;1606;51.946;10.558;2024-01-15T11:19:02;38.17;;;3.83;;
3189;SDS011;1606;51.946;10.558;2024-01-15T11:21:34;9.70;;;2.40;;
3189;SDS011;1606;51.946;10.558;2024-01-15T11:24:09;9.37;;;2.47;;
3189;SDS011;1606;51.946;10.558;2024-01-15T11:26:43;8.43;;;2.40;;
3189;SDS011;1606;51.946;10.558;2024-01-15T11:31:59;7.50;;;2.20;;
3189;SDS011;1606;51.946;10.558;2024-01-15T11:37:25;9.83;;;2.20;;
3189;SDS011;1606;51.946;10.558;2024-01-15T11:39:54;8.30;;;2.50;;
3189;SDS011;1606;51.946;10.558;2024-01-15T11:42:24;7.50;;;2.43;;
3189;SDS011;1606;51.946;10.558;2024-01-15T11:44:52;7.83;;;2.70;;
3189;SDS011;1606;51.946;10.558;2024-01-15T11:47:27;7.23;;;2.10;;
3189;SDS011;1606;51.946;10.558;2024-01-15T11:50:30;6.90;;;2.37;;
3189;SDS011;1606;51.946;10.558;2024-01-15T11:52:59;6.43;;;1.90;;
3189;SDS011;1606;51.946;10.558;2024-01-15T11:55:33;6.47;;;2.40;;
3189;SDS011;1606;51.946;10.558;2024-01-15T11:58:04;8.10;;;2.53;;
3189;SDS011;1606;51.946;10.558;2024-01-15T12:00:39;7.80;;;1.93;;
3189;SDS011;1606;51.946;10.558;2024-01-15T12:03:08;8.10;;;2.80;;
3189;SDS011;1606;51.946;10.558;2024-01-15T12:05:37;6.30;;;2.27;;
3189;SDS011;1606;51.946;10.558;2024-01-15T12:08:05;6.77;;;1.93;;
3189;SDS011;1606;51.946;10.558;2024-01-15T12:10:37;7.40;;;2.63;;
3189;SDS011;1606;51.946;10.558;2024-01-15T12:13:09;8.30;;;2.57;;
3189;SDS011;1606;51.946;10.558;2024-01-15T12:15:38;19.87;;;3.03;;
3189;SDS011;1606;51.946;10.558;2024-01-15T12:18:08;8.20;;;2.57;;
3189;SDS011;1606;51.946;10.558;2024-01-15T12:20:39;7.80;;;2.20;;
3189;SDS011;1606;51.946;10.558;2024-01-15T12:23:08;8.93;;;2.53;;
3189;SDS011;1606;51.946;10.558;2024-01-15T12:25:37;7.80;;;2.07;;
3189;SDS011;1606;51.946;10.558;2024-01-15T12:28:05;9.83;;;2.93;;
3189;SDS011;1606;51.946;10.558;2024-01-15T12:30:35;10.70;;;2.77;;
3189;SDS011;1606;51.946;10.558;2024-01-15T12:33:04;10.30;;;2.90;;
3189;SDS011;1606;51.946;10.558;2024-01-15T12:35:33;13.00;;;2.87;;
3189;SDS011;1606;51.946;10.558;2024-01-15T12:38:02;9.60;;;2.47;;
3189;SDS011;1606;51.946;10.558;2024-01-15T12:40:31;8.23;;;2.23;;
3189;SDS011;1606;51.946;10.558;2024-01-15T12:43:01;8.47;;;2.90;;
3189;SDS011;1606;51.946;10.558;2024-01-15T12:45:29;10.07;;;2.60;;
3189;SDS011;1606;51.946;10.558;2024-01-15T12:47:59;8.27;;;2.67;;
3189;SDS011;1606;51.946;10.558;2024-01-15T12:50:27;8.93;;;2.60;;
3189;SDS011;1606;51.946;10.558;2024-01-15T12:52:55;8.13;;;2.57;;
3189;SDS011;1606;51.946;10.558;2024-01-15T12:55:25;9.23;;;2.57;;
3189;SDS011;1606;51.946;10.558;2024-01-15T12:57:53;8.17;;;2.53;;
3189;SDS011;1606;51.946;10.558;2024-01-15T13:00:22;8.60;;;2.70;;
3189;SDS011;1606;51.946;10.558;2024-01-15T13:02:52;7.30;;;2.27;;
3189;SDS011;1606;51.946;10.558;2024-01-15T13:05:23;8.50;;;3.57;;
3189;SDS011;1606;51.946;10.558;2024-01-15T13:07:52;6.77;;;2.50;;
3189;SDS011;1606;51.946;10.558;2024-01-15T13:10:20;10.93;;;2.83;;
3189;SDS011;1606;51.946;10.558;2024-01-15T13:12:51;9.43;;;3.40;;
3189;SDS011;1606;51.946;10.558;2024-01-15T13:15:20;8.43;;;3.17;;
3189;SDS011;1606;51.946;10.558;2024-01-15T13:17:48;8.03;;;3.10;;
3189;SDS011;1606;51.946;10.558;2024-01-15T13:20:16;7.87;;;2.80;;
3189;SDS011;1606;51.946;10.558;2024-01-15T13:22:45;9.40;;;3.00;;
3189;SDS011;1606;51.946;10.558;2024-01-15T13:25:14;9.03;;;2.70;;
3189;SDS011;1606;51.946;10.558;2024-01-15T13:27:42;10.20;;;2.87;;
3189;SDS011;1606;51.946;10.558;2024-01-15T13:30:11;8.73;;;3.23;;
3189;SDS011;1606;51.946;10.558;2024-01-15T13:32:40;7.83;;;2.63;;
3189;SDS011;1606;51.946;10.558;2024-01-15T13:35:08;10.57;;;2.97;;
3189;SDS011;1606;51.946;10.558;2024-01-15T13:37:39;8.67;;;2.67;;
3189;SDS011;1606;51.946;10.558;2024-01-15T13:40:10;12.10;;;2.43;;
3189;SDS011;1606;51.946;10.558;2024-01-15T13:42:46;9.37;;;2.63;;
3189;SDS011;1606;51.946;10.558;2024-01-15T13:45:15;9.13;;;2.60;;
3189;SDS011;1606;51.946;10.558;2024-01-15T13:47:43;7.47;;;2.77;;
3189;SDS011;1606;51.946;10.558;2024-01-15T13:50:11;9.37;;;2.80;;
3189;SDS011;1606;51.946;10.558;2024-01-15T13:52:40;7.90;;;2.53;;
3189;SDS011;1606;51.946;10.558;2024-01-15T13:55:08;7.83;;;2.00;;
3189;SDS011;1606;51.946;10.558;2024-01-15T13:57:38;8.83;;;2.70;;
3189;SDS011;1606;51.946;10.558;2024-01-15T14:00:06;7.37;;;2.00;;
3189;SDS011;1606;51.946;10.558;2024-01-15T14:02:39;12.63;;;2.20;;
3189;SDS011;1606;51.946;10.558;2024-01-15T14:05:08;8.87;;;2.30;;
3189;SDS011;1606;51.946;10.558;2024-01-15T14:07:39;7.80;;;2.70;;
3189;SDS011;1606;51.946;10.558;2024-01-15T14:10:09;11.07;;;2.50;;
3189;SDS011;1606;51.946;10.558;2024-01-15T14:12:38;9.43;;;2.30;;
3189;SDS011;1606;51.946;10.558;2024-01-15T14:15:07;6.90;;;2.40;;
3189;SDS011;1606;51.946;10.558;2024-01-15T14:17:35;8.23;;;2.57;;
3189;SDS011;1606;51.946;10.558;2024-01-15T14:20:05;6.23;;;2.03;;
3189;SDS011;1606;51.946;10.558;2024-01-15T14:22:36;16.50;;;2.90;;
3189;SDS011;1606;51.946;10.558;2024-01-15T14:25:04;10.00;;;2.27;;
3189;SDS011;1606;51.946;10.558;2024-01-15T14:27:32;7.83;;;2.53;;
3189;SDS011;1606;51.946;10.558;2024-01-15T14:30:04;7.03;;;2.40;;
3189;SDS011;1606;51.946;10.558;2024-01-15T14:32:35;8.37;;;2.57;;
3189;SDS011;1606;51.946;10.558;2024-01-15T14:35:05;11.20;;;2.30;;
3189;SDS011;1606;51.946;10.558;2024-01-15T14:37:34;8.73;;;2.40;;
3189;SDS011;1606;51.946;10.558;2024-01-15T14:40:03;8.43;;;2.97;;
3189;SDS011;1606;51.946;10.558;2024-01-15T14:42:32;8.33;;;2.70;;
3189;SDS011;1606;51.946;10.558;2024-01-15T14:45:06;7.30;;;2.57;;
3189;SDS011;1606;51.946;10.558;2024-01-15T14:47:38;14.87;;;4.00;;
3189;SDS011;1606;51.946;10.558;2024-01-15T14:50:11;10.97;;;3.20;;
3189;SDS011;1606;51.946;10.558;2024-01-15T14:52:39;7.40;;;2.60;;
3189;SDS011;1606;51.946;10.558;2024-01-15T14:55:12;8.23;;;2.60;;
3189;SDS011;1606;51.946;10.558;2024-01-15T14:57:40;5.87;;;2.33;;
3189;SDS011;1606;51.946;10.558;2024-01-15T15:00:09;7.27;;;2.60;;
3189;SDS011;1606;51.946;10.558;2024-01-15T15:02:39;9.20;;;3.83;;
3189;SDS011;1606;51.946;10.558;2024-01-15T15:05:08;8.57;;;2.43;;
3189;SDS011;1606;51.946;10.558;2024-01-15T15:07:42;10.87;;;2.87;;
3189;SDS011;1606;51.946;10.558;2024-01-15T15:10:10;8.50;;;2.50;;
3189;SDS011;1606;51.946;10.558;2024-01-15T15:12:38;6.67;;;2.50;;
3189;SDS011;1606;51.946;10.558;2024-01-15T15:15:06;7.07;;;2.50;;
3189;SDS011;1606;51.946;10.558;2024-01-15T15:17:43;7.20;;;2.37;;
3189;SDS011;1606;51.946;10.558;2024-01-15T15:20:15;7.20;;;1.97;;
3189;SDS011;1606;51.946;10.558;2024-01-15T15:22:45;13.10;;;2.90;;
3189;SDS011;1606;51.946;10.558;2024-01-15T15:25:20;9.30;;;2.80;;
3189;SDS011;1606;51.946;10.558;2024-01-15T15:27:48;15.13;;;5.03;;
3189;SDS011;1606;51.946;10.558;2024-01-15T15:30:19;8.60;;;2.43;;
3189;SDS011;1606;51.946;10.558;2024-01-15T15:32:48;9.10;;;2.50;;